Time;durP1;ratioP1;P1;durP2;ratioP2;P2;SDS_P1;SDS_P2;PMS_P1;PMS_P2;Temp;Humidity;BMP_temperature;BMP_pressure;BME280_temperature;BME280_humidity;BME280_pressure;Samples;Min_cycle;Max_cycle;Signal;HPM_P1;HPM_P2
2023/09/23 00:00:12;;;;;;;0.30;0.30;;;12.70;99.90;;;;;;5043949;28;20048;-74
2023/09/23 00:02:38;;;;;;;0.30;0.30;;;12.70;99.90;;;;;;5036194;28;20409;-75
2023/09/23 00:05:08;;;;;;;0.40;0.40;;;12.70;99.90;;;;;;5050669;28;20123;-75
2023/09/23 00:07:36;;;;;;;0.40;0.40;;;12.70;99.90;;;;;;5030028;28;20351;-73
2023/09/23 00:10:05;;;;;;;0.30;0.30;;;12.70;99.90;;;;;;5043669;28;20064;-75
2023/09/23 00:12:30;;;;;;;0.50;0.50;;;12.70;99.90;;;;;;5047884;28;20128;-75
2023/09/23 00:14:57;;;;;;;0.47;0.47;;;12.70;99.90;;;;;;5046100;28;20525;-75
2023/09/23 00:17:23;;;;;;;0.50;0.50;;;12.70;99.90;;;;;;5045209;28;20053;-75
2023/09/23 00:19:48;;;;;;;0.32;0.32;;;12.60;99.90;;;;;;5043586;28;20066;-75
2023/09/23 00:22:14;;;;;;;0.30;0.30;;;12.60;99.90;;;;;;5046433;28;20106;-77
2023/09/23 00:24:39;;;;;;;0.30;0.30;;;12.60;99.90;;;;;;5056357;28;20049;-75
2023/09/23 00:27:07;;;;;;;0.30;0.30;;;12.60;99.90;;;;;;5056464;28;20084;-75
2023/09/23 00:29:34;;;;;;;0.30;0.30;;;12.60;99.90;;;;;;5060100;28;20092;-78
2023/09/23 00:32:00;;;;;;;0.45;0.45;;;12.60;99.90;;;;;;5056536;28;20049;-74
2023/09/23 00:34:26;;;;;;;0.38;0.38;;;12.60;99.90;;;;;;5047986;28;20493;-74
2023/09/23 00:36:52;;;;;;;0.40;0.40;;;12.60;99.90;;;;;;5041362;28;20406;-75
2023/09/23 00:39:18;;;;;;;0.50;0.50;;;12.60;99.90;;;;;;5048803;28;20056;-75
2023/09/23 00:41:44;;;;;;;0.40;0.40;;;12.60;99.90;;;;;;5049681;28;20120;-77
2023/09/23 00:44:10;;;;;;;0.30;0.30;;;12.60;99.90;;;;;;5047052;28;20098;-75
2023/09/23 00:46:36;;;;;;;0.40;0.40;;;12.50;99.90;;;;;;5054299;28;20060;-75
2023/09/23 00:49:07;;;;;;;0.63;0.55;;;12.50;99.90;;;;;;5054170;28;20049;-75
2023/09/23 00:51:33;;;;;;;0.30;0.30;;;12.50;99.90;;;;;;5026697;28;20125;-75
2023/09/23 00:54:01;;;;;;;0.35;0.35;;;12.50;99.90;;;;;;5045733;28;20095;-75
2023/09/23 00:56:27;;;;;;;0.40;0.40;;;12.50;99.90;;;;;;5050057;28;20072;-77
2023/09/23 00:58:53;;;;;;;0.40;0.40;;;12.50;99.90;;;;;;5051280;28;20085;-75
2023/09/23 01:01:21;;;;;;;0.30;0.30;;;12.50;99.90;;;;;;5052255;28;20077;-75
2023/09/23 01:03:47;;;;;;;0.40;0.40;;;12.40;99.90;;;;;;5046442;28;20049;-75
2023/09/23 01:06:21;;;;;;;0.30;0.30;;;12.40;99.90;;;;;;5045538;28;20049;-75
2023/09/23 01:08:49;;;;;;;0.73;0.73;;;12.40;99.90;;;;;;5038161;28;20053;-75
2023/09/23 01:11:17;;;;;;;0.22;0.22;;;12.40;99.90;;;;;;5058081;28;20044;-75
2023/09/23 01:13:45;;;;;;;0.40;0.40;;;12.40;99.90;;;;;;5055415;28;20044;-74
2023/09/23 01:16:14;;;;;;;0.40;0.40;;;12.40;99.90;;;;;;5058944;28;20434;-77
2023/09/23 01:18:44;;;;;;;0.60;0.60;;;12.40;99.90;;;;;;5058788;28;20044;-75
2023/09/23 01:21:10;;;;;;;0.30;0.30;;;12.40;99.90;;;;;;5049323;28;20041;-75
2023/09/23 01:23:37;;;;;;;0.40;0.40;;;12.40;99.90;;;;;;5060644;28;20059;-76
2023/09/23 01:26:04;;;;;;;0.82;0.82;;;12.30;99.90;;;;;;5057273;28;20044;-75
2023/09/23 01:28:32;;;;;;;0.47;0.47;;;12.40;99.90;;;;;;5053686;28;20036;-75
2023/09/23 01:31:00;;;;;;;0.30;0.30;;;12.30;99.90;;;;;;5060340;28;20079;-77
2023/09/23 01:33:27;;;;;;;0.50;0.50;;;12.30;99.90;;;;;;5045397;28;20041;-75
2023/09/23 01:35:56;;;;;;;0.30;0.30;;;12.30;99.90;;;;;;5053697;28;20053;-74
2023/09/23 01:38:23;;;;;;;0.40;0.40;;;12.30;99.90;;;;;;5053477;28;20048;-75
2023/09/23 01:40:48;;;;;;;0.30;0.30;;;12.30;99.90;;;;;;5052244;28;20449;-75
2023/09/23 01:43:14;;;;;;;0.60;0.60;;;12.20;99.90;;;;;;5049241;28;20095;-75
2023/09/23 01:45:40;;;;;;;0.30;0.30;;;12.20;99.90;;;;;;5048030;28;20073;-75
2023/09/23 01:48:06;;;;;;;0.57;0.57;;;12.20;99.90;;;;;;5053828;28;20044;-75
2023/09/23 01:50:32;;;;;;;0.30;0.30;;;12.20;99.90;;;;;;5056982;28;20033;-75
2023/09/23 01:53:00;;;;;;;0.40;0.40;;;12.20;99.90;;;;;;5052225;28;20076;-75
2023/09/23 01:55:26;;;;;;;0.30;0.30;;;12.20;99.90;;;;;;5054566;28;20090;-78
2023/09/23 01:57:52;;;;;;;0.32;0.32;;;12.20;99.90;;;;;;5045575;28;20051;-75
2023/09/23 02:00:18;;;;;;;0.30;0.30;;;12.20;99.90;;;;;;5054413;28;20040;-75
2023/09/23 02:02:44;;;;;;;0.40;0.40;;;12.20;99.90;;;;;;5058387;28;20064;-75
2023/09/23 02:05:10;;;;;;;0.30;0.30;;;12.20;99.90;;;;;;5048905;28;20049;-75
2023/09/23 02:07:39;;;;;;;0.40;0.40;;;12.20;99.90;;;;;;5043575;28;23314;-75
2023/09/23 02:10:09;;;;;;;0.40;0.40;;;12.20;99.90;;;;;;5043224;28;20056;-75
2023/09/23 02:12:35;;;;;;;0.30;0.30;;;12.20;99.90;;;;;;5053638;28;20140;-74
2023/09/23 02:15:00;;;;;;;0.30;0.30;;;12.20;99.90;;;;;;5047078;28;20057;-75
2023/09/23 02:17:26;;;;;;;0.57;0.57;;;12.20;99.90;;;;;;5039394;28;20410;-75
2023/09/23 02:19:52;;;;;;;0.30;0.30;;;12.20;99.90;;;;;;5040677;28;20120;-75
2023/09/23 02:22:18;;;;;;;0.30;0.30;;;12.20;99.90;;;;;;5037580;28;20046;-75
2023/09/23 02:24:44;;;;;;;0.40;0.40;;;12.10;99.90;;;;;;5048581;28;20057;-75
2023/09/23 02:27:10;;;;;;;0.30;0.30;;;12.10;99.90;;;;;;5052403;28;20440;-75
2023/09/23 02:29:36;;;;;;;0.30;0.30;;;12.10;99.90;;;;;;5042416;28;20391;-76
2023/09/23 02:32:01;;;;;;;0.30;0.30;;;12.20;99.90;;;;;;5042188;28;20064;-75
2023/09/23 02:34:30;;;;;;;0.60;0.60;;;12.10;99.90;;;;;;5049240;28;20044;-75
2023/09/23 02:36:56;;;;;;;0.47;0.47;;;12.10;99.90;;;;;;5061380;28;20098;-75
2023/09/23 02:39:21;;;;;;;0.40;0.40;;;12.10;99.90;;;;;;5053837;28;20606;-75
2023/09/23 02:41:48;;;;;;;0.30;0.30;;;12.10;99.90;;;;;;5052254;28;20413;-75
2023/09/23 02:44:23;;;;;;;0.65;0.65;;;12.10;99.90;;;;;;5045996;28;20053;-75
2023/09/23 02:46:54;;;;;;;0.30;0.30;;;12.10;99.90;;;;;;5060720;28;20045;-75
2023/09/23 02:49:22;;;;;;;0.30;0.30;;;12.10;99.90;;;;;;5052101;28;20513;-75
2023/09/23 02:51:49;;;;;;;0.50;0.50;;;12.10;99.90;;;;;;5058061;28;20076;-75
2023/09/23 02:54:17;;;;;;;0.40;0.40;;;12.10;99.90;;;;;;5058007;28;20535;-75
2023/09/23 02:56:47;;;;;;;0.40;0.40;;;12.20;99.90;;;;;;5049205;28;20037;-75
2023/09/23 02:59:21;;;;;;;0.50;0.50;;;12.10;99.90;;;;;;5045739;28;20045;-75
2023/09/23 03:01:51;;;;;;;0.40;0.40;;;12.10;99.90;;;;;;5053020;28;20052;-75
2023/09/23 03:04:23;;;;;;;0.35;0.35;;;12.10;99.90;;;;;;5054067;28;20041;-75
2023/09/23 03:06:50;;;;;;;0.38;0.38;;;12.10;99.90;;;;;;5054042;28;20516;-75
2023/09/23 03:09:20;;;;;;;0.45;0.45;;;12.10;99.90;;;;;;5052076;28;20131;-75
2023/09/23 03:11:55;;;;;;;0.40;0.40;;;12.00;99.90;;;;;;5062004;28;20064;-73
2023/09/23 03:14:35;;;;;;;0.35;0.35;;;12.00;99.90;;;;;;5051471;28;20041;-74
2023/09/23 03:17:03;;;;;;;0.30;0.30;;;11.90;99.90;;;;;;5043480;28;20061;-74
2023/09/23 03:19:31;;;;;;;0.50;0.50;;;11.90;99.90;;;;;;5053590;28;20132;-77
2023/09/23 03:21:58;;;;;;;0.50;0.50;;;11.90;99.90;;;;;;5048584;28;20041;-74
2023/09/23 03:24:25;;;;;;;0.40;0.40;;;11.80;99.90;;;;;;5059662;28;20480;-73
2023/09/23 03:26:56;;;;;;;0.40;0.40;;;11.80;99.90;;;;;;5056294;28;20490;-74
2023/09/23 03:29:22;;;;;;;0.30;0.30;;;11.70;99.90;;;;;;5045852;28;20040;-74
2023/09/23 03:31:49;;;;;;;0.40;0.40;;;11.70;99.90;;;;;;5051529;28;20106;-75
2023/09/23 03:34:17;;;;;;;0.40;0.40;;;11.60;99.90;;;;;;5047741;28;20638;-75
2023/09/23 03:36:46;;;;;;;0.43;0.43;;;11.60;99.90;;;;;;5053207;28;20045;-74
2023/09/23 03:39:12;;;;;;;0.40;0.40;;;11.60;99.90;;;;;;5061683;28;20142;-75
2023/09/23 03:41:38;;;;;;;0.30;0.30;;;11.50;99.90;;;;;;5060059;28;20057;-75
2023/09/23 03:44:05;;;;;;;0.20;0.20;;;11.50;99.90;;;;;;5051657;28;20045;-75
2023/09/23 03:46:31;;;;;;;0.55;0.55;;;11.50;99.90;;;;;;5045441;28;20045;-75
2023/09/23 03:48:57;;;;;;;0.30;0.30;;;11.40;99.90;;;;;;5054793;28;20043;-75
2023/09/23 03:51:24;;;;;;;0.47;0.47;;;11.40;99.90;;;;;;5050209;28;20253;-75
2023/09/23 03:53:51;;;;;;;0.30;0.30;;;11.40;99.90;;;;;;5048454;28;20052;-75
2023/09/23 03:56:24;;;;;;;0.50;0.50;;;11.40;99.90;;;;;;5051228;28;20482;-75
2023/09/23 03:58:52;;;;;;;0.30;0.30;;;11.30;99.90;;;;;;5046801;28;20139;-75
2023/09/23 04:01:19;;;;;;;0.40;0.40;;;11.30;99.90;;;;;;5058387;28;20045;-75
2023/09/23 04:03:45;;;;;;;0.30;0.30;;;11.30;99.90;;;;;;5064741;28;20052;-75
2023/09/23 04:06:11;;;;;;;0.70;0.70;;;11.30;99.90;;;;;;5057173;28;20101;-75
2023/09/23 04:08:37;;;;;;;0.40;0.40;;;11.20;99.90;;;;;;5067141;28;20123;-75
2023/09/23 04:11:04;;;;;;;0.40;0.40;;;11.20;99.90;;;;;;5048706;28;20061;-74
2023/09/23 04:13:30;;;;;;;0.40;0.40;;;11.20;99.90;;;;;;5046772;28;20045;-74
2023/09/23 04:16:02;;;;;;;0.30;0.30;;;11.20;99.90;;;;;;5053099;28;20051;-75
2023/09/23 04:18:29;;;;;;;0.40;0.40;;;11.20;99.90;;;;;;5037380;28;20053;-75
2023/09/23 04:20:55;;;;;;;0.45;0.45;;;11.10;99.90;;;;;;5055658;28;20401;-75
2023/09/23 04:23:21;;;;;;;0.30;0.30;;;11.20;99.90;;;;;;5057616;28;20047;-75
2023/09/23 04:25:50;;;;;;;0.60;0.60;;;11.10;99.90;;;;;;5056913;28;20049;-74
2023/09/23 04:28:18;;;;;;;0.75;0.75;;;11.10;99.90;;;;;;5046903;28;20041;-76
2023/09/23 04:30:45;;;;;;;1.08;1.05;;;11.10;99.90;;;;;;5051604;28;20596;-74
2023/09/23 04:33:13;;;;;;;0.70;0.70;;;11.10;99.90;;;;;;5049528;28;20438;-75
2023/09/23 04:35:40;;;;;;;;;;;11.10;99.90;;;;;;5056487;28;20043;-75
2023/09/23 04:38:06;;;;;;;0.60;0.60;;;11.10;99.90;;;;;;5051209;28;19948;-75
2023/09/23 04:40:32;;;;;;;1.02;1.00;;;11.10;99.90;;;;;;5054264;28;20485;-76
2023/09/23 04:42:57;;;;;;;0.63;0.63;;;11.10;99.90;;;;;;5047772;28;20040;-75
2023/09/23 04:45:24;;;;;;;0.45;0.45;;;11.10;99.90;;;;;;5049189;28;20102;-76
2023/09/23 04:47:52;;;;;;;0.52;0.52;;;11.10;99.90;;;;;;5042339;28;20049;-75
2023/09/23 04:50:18;;;;;;;0.43;0.43;;;11.10;99.90;;;;;;5040480;28;20545;-75
2023/09/23 04:52:46;;;;;;;0.50;0.50;;;11.10;99.90;;;;;;5053911;28;20067;-75
2023/09/23 04:55:12;;;;;;;0.55;0.55;;;11.10;99.90;;;;;;5053005;28;20063;-77
2023/09/23 04:57:38;;;;;;;0.60;0.60;;;11.10;99.90;;;;;;5043859;28;20057;-74
2023/09/23 05:00:04;;;;;;;0.82;0.82;;;11.00;99.90;;;;;;5047449;28;20124;-74
2023/09/23 05:02:31;;;;;;;0.40;0.40;;;11.00;99.90;;;;;;5040361;28;20518;-74
2023/09/23 05:04:57;;;;;;;0.50;0.50;;;10.90;99.90;;;;;;5055008;28;20064;-75
2023/09/23 05:07:26;;;;;;;0.50;0.50;;;10.90;99.90;;;;;;5044281;28;20045;-74
2023/09/23 05:09:55;;;;;;;0.63;0.63;;;10.90;99.90;;;;;;5055438;28;20049;-74
2023/09/23 05:12:21;;;;;;;0.38;0.38;;;10.90;99.90;;;;;;5049086;28;20045;-73
2023/09/23 05:14:47;;;;;;;0.75;0.70;;;10.90;99.90;;;;;;5060069;28;20361;-74
2023/09/23 05:17:15;;;;;;;0.70;0.70;;;10.80;99.90;;;;;;5060575;28;20390;-74
2023/09/23 05:19:41;;;;;;;0.50;0.50;;;10.80;99.90;;;;;;5053725;28;20063;-74
2023/09/23 05:22:08;;;;;;;0.50;0.50;;;10.80;99.90;;;;;;5053583;28;20120;-74
2023/09/23 05:24:34;;;;;;;0.75;0.75;;;10.70;99.90;;;;;;5047634;28;20119;-74
2023/09/23 05:27:00;;;;;;;0.98;0.93;;;10.70;99.90;;;;;;5053203;28;20059;-74
2023/09/23 05:29:26;;;;;;;0.70;0.70;;;10.70;99.90;;;;;;5046403;28;20425;-74
2023/09/23 05:31:53;;;;;;;0.60;0.60;;;10.70;99.90;;;;;;5065404;28;20036;-74
2023/09/23 05:34:19;;;;;;;0.40;0.40;;;10.70;99.90;;;;;;5037755;28;20037;-74
2023/09/23 05:36:45;;;;;;;1.45;0.77;;;10.60;99.90;;;;;;5049752;28;20041;-74
2023/09/23 05:39:14;;;;;;;0.57;0.57;;;10.60;99.90;;;;;;5055575;28;20053;-74
2023/09/23 05:41:40;;;;;;;0.70;0.70;;;10.60;99.90;;;;;;5055523;28;20076;-75
2023/09/23 05:44:07;;;;;;;0.65;0.65;;;10.60;99.90;;;;;;5041177;28;20502;-74
2023/09/23 05:46:42;;;;;;;0.90;0.90;;;10.60;99.90;;;;;;5057759;28;20439;-74
2023/09/23 05:49:08;;;;;;;0.50;0.50;;;10.60;99.90;;;;;;5052650;28;20161;-73
2023/09/23 05:51:34;;;;;;;0.32;0.32;;;10.70;99.90;;;;;;5044620;28;20040;-74
2023/09/23 05:54:03;;;;;;;1.20;1.20;;;10.70;99.90;;;;;;5048625;28;20439;-77
2023/09/23 05:56:28;;;;;;;0.40;0.40;;;10.70;99.90;;;;;;5041607;28;20045;-75
2023/09/23 05:58:56;;;;;;;0.68;0.68;;;10.70;99.90;;;;;;5042883;28;20048;-73
2023/09/23 06:01:23;;;;;;;0.95;0.95;;;10.70;99.90;;;;;;5041356;28;20041;-76
2023/09/23 06:03:50;;;;;;;1.25;1.20;;;10.80;99.90;;;;;;5052311;28;20045;-73
2023/09/23 06:06:15;;;;;;;0.40;0.40;;;10.80;99.90;;;;;;5031649;28;20490;-73
2023/09/23 06:08:41;;;;;;;1.70;1.10;;;10.80;99.90;;;;;;5049457;28;20040;-77
2023/09/23 06:11:09;;;;;;;2.53;1.20;;;10.90;99.90;;;;;;5035308;28;20129;-74
2023/09/23 06:13:39;;;;;;;2.13;1.95;;;10.90;99.90;;;;;;5045716;28;20056;-75
2023/09/23 06:16:05;;;;;;;1.13;0.93;;;11.00;99.90;;;;;;5043167;28;20119;-76
2023/09/23 06:18:32;;;;;;;0.63;0.63;;;11.00;99.90;;;;;;5057766;28;20060;-75
2023/09/23 06:21:02;;;;;;;0.70;0.70;;;11.00;99.90;;;;;;5059507;28;20063;-76
2023/09/23 06:23:28;;;;;;;0.73;0.73;;;11.10;99.90;;;;;;5052244;28;20568;-75
2023/09/23 06:25:55;;;;;;;1.25;1.15;;;11.10;99.90;;;;;;5050897;28;20090;-76
2023/09/23 06:28:22;;;;;;;4.28;1.58;;;11.20;99.90;;;;;;5049441;28;20463;-75
2023/09/23 06:30:48;;;;;;;2.85;2.15;;;11.20;99.90;;;;;;5057464;28;20500;-76
2023/09/23 06:33:13;;;;;;;0.90;0.90;;;11.20;99.90;;;;;;5049934;28;20080;-76
2023/09/23 06:35:39;;;;;;;1.45;1.35;;;11.30;99.90;;;;;;5041544;28;20048;-76
2023/09/23 06:38:05;;;;;;;1.23;1.15;;;11.30;99.90;;;;;;5052587;28;20777;-76
2023/09/23 06:40:30;;;;;;;0.90;0.90;;;11.40;99.90;;;;;;5057338;28;20563;-75
2023/09/23 06:42:56;;;;;;;0.75;0.75;;;11.40;99.90;;;;;;5052776;28;20716;-75
2023/09/23 06:45:21;;;;;;;1.08;1.08;;;11.50;99.90;;;;;;5050908;28;20044;-75
2023/09/23 06:47:47;;;;;;;1.02;1.02;;;11.60;99.90;;;;;;5047072;28;20042;-74
2023/09/23 06:50:13;;;;;;;6.45;1.75;;;11.60;99.90;;;;;;5048991;28;20136;-74
2023/09/23 06:52:38;;;;;;;1.60;1.52;;;11.60;99.90;;;;;;5046188;28;20044;-75
2023/09/23 06:55:04;;;;;;;1.92;1.55;;;11.70;99.90;;;;;;5056392;28;20037;-75
2023/09/23 06:57:30;;;;;;;1.58;1.42;;;11.80;99.90;;;;;;5057670;28;20040;-75
2023/09/23 06:59:56;;;;;;;1.70;1.60;;;11.90;99.90;;;;;;5056975;28;20143;-75
2023/09/23 07:02:21;;;;;;;1.05;1.02;;;11.90;99.90;;;;;;5047751;28;20051;-74
2023/09/23 07:04:47;;;;;;;1.60;1.50;;;12.00;99.90;;;;;;5046133;28;20071;-74
2023/09/23 07:07:13;;;;;;;0.60;0.60;;;12.00;99.90;;;;;;5039703;28;20129;-74
2023/09/23 07:09:38;;;;;;;0.77;0.77;;;12.10;99.90;;;;;;5048628;28;20708;-74
2023/09/23 07:12:05;;;;;;;0.50;0.50;;;12.20;99.90;;;;;;5045481;28;20053;-75
2023/09/23 07:14:31;;;;;;;0.50;0.50;;;12.30;99.90;;;;;;5050686;28;20579;-74
2023/09/23 07:16:56;;;;;;;1.33;1.25;;;12.30;99.90;;;;;;5048007;28;20073;-75
2023/09/23 07:19:22;;;;;;;0.70;0.70;;;12.40;99.90;;;;;;5051799;28;20914;-76
2023/09/23 07:21:47;;;;;;;1.02;1.02;;;12.50;99.90;;;;;;5054333;28;20422;-75
2023/09/23 07:24:13;;;;;;;1.67;1.58;;;12.60;99.90;;;;;;5041419;28;20084;-74
2023/09/23 07:26:39;;;;;;;0.70;0.70;;;12.70;99.90;;;;;;5042585;28;20460;-74
2023/09/23 07:29:04;;;;;;;2.22;2.10;;;12.70;99.90;;;;;;5051530;28;20047;-75
2023/09/23 07:31:30;;;;;;;1.50;1.13;;;12.80;99.90;;;;;;5051332;28;20098;-74
2023/09/23 07:33:55;;;;;;;1.88;1.77;;;12.90;99.90;;;;;;5042293;28;20110;-74
2023/09/23 07:36:21;;;;;;;0.75;0.75;;;12.90;99.90;;;;;;5049503;28;20540;-75
2023/09/23 07:38:47;;;;;;;1.30;1.20;;;12.90;99.90;;;;;;5046900;28;20049;-74
2023/09/23 07:41:12;;;;;;;0.73;0.73;;;13.00;99.90;;;;;;5046503;28;20048;-74
2023/09/23 07:43:39;;;;;;;1.05;0.98;;;13.10;99.90;;;;;;5047932;28;20049;-74
2023/09/23 07:46:05;;;;;;;0.70;0.70;;;13.10;99.90;;;;;;5047127;28;20048;-75
2023/09/23 07:48:31;;;;;;;1.10;1.10;;;13.20;99.90;;;;;;5054576;28;20072;-75
2023/09/23 07:50:57;;;;;;;2.83;1.95;;;13.20;99.90;;;;;;5045106;28;20095;-74
2023/09/23 07:53:23;;;;;;;2.40;2.15;;;13.30;99.90;;;;;;5053935;28;20033;-75
2023/09/23 07:55:49;;;;;;;0.77;0.75;;;13.40;99.90;;;;;;5047528;28;20107;-75
2023/09/23 07:58:15;;;;;;;0.68;0.68;;;13.40;99.90;;;;;;5060698;28;20085;-74
2023/09/23 08:00:44;;;;;;;0.77;0.77;;;13.50;99.90;;;;;;5054743;28;20088;-75
2023/09/23 08:03:10;;;;;;;0.95;0.95;;;13.60;99.90;;;;;;5051769;28;20083;-74
2023/09/23 08:05:36;;;;;;;0.95;0.95;;;13.70;99.90;;;;;;5048356;28;20494;-75
2023/09/23 08:08:03;;;;;;;0.80;0.80;;;13.70;99.90;;;;;;5050284;28;20554;-74
2023/09/23 08:10:29;;;;;;;2.05;1.95;;;13.80;99.90;;;;;;5053939;28;20490;-74
2023/09/23 08:12:54;;;;;;;1.17;1.17;;;13.90;99.90;;;;;;5041500;28;20052;-74
2023/09/23 08:15:20;;;;;;;0.80;0.80;;;13.90;99.90;;;;;;5047901;28;20402;-74
2023/09/23 08:17:46;;;;;;;0.77;0.77;;;14.00;99.90;;;;;;5052190;28;20124;-74
2023/09/23 08:20:18;;;;;;;0.65;0.65;;;14.10;99.90;;;;;;5052201;28;20080;-74
2023/09/23 08:22:45;;;;;;;0.57;0.57;;;14.20;99.90;;;;;;5045544;28;20075;-73
2023/09/23 08:25:15;;;;;;;1.45;0.75;;;14.30;99.90;;;;;;5047637;28;20084;-73
2023/09/23 08:27:41;;;;;;;1.20;1.20;;;14.40;99.90;;;;;;5048820;28;20064;-73
2023/09/23 08:30:10;;;;;;;4.68;1.13;;;14.50;99.90;;;;;;5043854;28;20558;-73
2023/09/23 08:32:37;;;;;;;1.13;1.13;;;14.60;99.90;;;;;;5048877;28;20614;-72
2023/09/23 08:35:03;;;;;;;1.30;1.13;;;14.70;99.90;;;;;;5046958;28;20051;-73
2023/09/23 08:37:29;;;;;;;2.30;2.10;;;14.70;99.90;;;;;;5053097;28;20056;-73
2023/09/23 08:39:55;;;;;;;1.67;1.58;;;14.70;99.90;;;;;;5053327;28;20048;-74
2023/09/23 08:42:23;;;;;;;2.30;2.10;;;14.60;99.90;;;;;;5045278;28;20041;-74
2023/09/23 08:44:49;;;;;;;1.40;1.30;;;14.60;99.90;;;;;;5029578;28;20044;-73
2023/09/23 08:47:18;;;;;;;0.80;0.80;;;14.60;99.90;;;;;;5046758;28;20041;-73
2023/09/23 08:49:46;;;;;;;;;;;14.70;99.90;;;;;;5054701;28;20105;-73
2023/09/23 08:52:12;;;;;;;1.10;1.10;;;14.70;99.90;;;;;;5050674;28;19967;-73
2023/09/23 08:54:39;;;;;;;0.60;0.60;;;14.80;99.90;;;;;;5049261;28;20049;-74
2023/09/23 08:57:05;;;;;;;1.77;1.67;;;14.90;99.90;;;;;;5050721;28;20047;-73
2023/09/23 09:02:31;;;;;;;1.42;1.33;;;15.30;99.90;;;;;;5094158;27;20381;-73
2023/09/23 09:04:59;;;;;;;2.50;1.85;;;15.40;99.90;;;;;;5049860;28;20036;-74
2023/09/23 09:07:33;;;;;;;1.80;1.70;;;15.50;99.90;;;;;;5058970;28;20040;-73
2023/09/23 09:09:58;;;;;;;0.70;0.70;;;15.70;99.90;;;;;;5063058;28;20115;-73
2023/09/23 09:12:24;;;;;;;1.10;1.00;;;15.80;99.90;;;;;;5065004;28;20140;-72
2023/09/23 09:14:51;;;;;;;2.13;1.63;;;15.90;99.90;;;;;;5046511;28;20116;-74
2023/09/23 09:17:18;;;;;;;1.40;1.30;;;16.00;99.90;;;;;;5061614;28;20040;-75
2023/09/23 09:19:44;;;;;;;0.85;0.85;;;16.10;99.90;;;;;;5044248;28;20035;-75
2023/09/23 09:22:10;;;;;;;1.30;0.98;;;16.20;99.90;;;;;;5045435;28;20036;-76
2023/09/23 09:24:36;;;;;;;1.48;1.40;;;16.40;99.90;;;;;;5059849;28;20072;-75
2023/09/23 09:27:02;;;;;;;1.63;1.52;;;16.60;99.90;;;;;;5063725;28;20025;-76
2023/09/23 09:29:29;;;;;;;1.67;1.48;;;16.80;99.90;;;;;;5045712;28;20158;-76
2023/09/23 09:32:02;;;;;;;0.88;0.88;;;17.00;99.90;;;;;;5066143;28;20036;-75
2023/09/23 09:34:31;;;;;;;1.15;1.15;;;17.20;99.90;;;;;;5041451;28;20066;-76
2023/09/23 09:36:57;;;;;;;0.95;0.88;;;17.40;99.90;;;;;;5047330;28;20128;-76
2023/09/23 09:39:28;;;;;;;1.65;1.35;;;17.50;99.90;;;;;;5061940;28;20464;-76
2023/09/23 09:41:57;;;;;;;0.82;0.80;;;17.50;99.90;;;;;;5065343;28;20036;-71
2023/09/23 09:44:27;;;;;;;1.63;1.52;;;17.60;99.90;;;;;;5054133;28;20048;-75
2023/09/23 09:46:55;;;;;;;1.40;1.35;;;17.60;99.90;;;;;;5056509;28;20060;-75
2023/09/23 09:49:24;;;;;;;0.93;0.93;;;17.60;99.90;;;;;;5036205;28;20045;-74
2023/09/23 09:51:51;;;;;;;1.60;1.50;;;17.50;99.90;;;;;;5038442;28;20045;-75
2023/09/23 09:54:20;;;;;;;1.33;1.33;;;17.60;99.90;;;;;;5041812;28;20040;-74
2023/09/23 09:56:49;;;;;;;0.93;0.93;;;17.70;99.90;;;;;;5057652;28;20036;-74
2023/09/23 09:59:30;;;;;;;0.60;0.60;;;17.80;99.90;;;;;;5053728;28;20037;-74
2023/09/23 10:01:57;;;;;;;0.52;0.52;;;17.80;99.90;;;;;;5043470;28;20056;-74
2023/09/23 10:04:27;;;;;;;2.67;1.20;;;17.70;99.90;;;;;;5036034;28;20048;-74
2023/09/23 10:06:54;;;;;;;0.55;0.55;;;17.70;99.90;;;;;;5066484;28;20041;-74
2023/09/23 10:09:27;;;;;;;2.90;1.33;;;17.80;99.90;;;;;;5065829;28;20524;-73
2023/09/23 10:11:54;;;;;;;1.10;1.10;;;18.00;99.90;;;;;;5056126;28;20278;-75
2023/09/23 10:14:21;;;;;;;1.08;0.65;;;18.20;99.90;;;;;;5029502;28;20123;-70
2023/09/23 10:17:02;;;;;;;0.75;0.75;;;18.30;99.90;;;;;;5047933;28;20044;-70
2023/09/23 10:19:29;;;;;;;0.63;0.63;;;18.30;99.90;;;;;;5044561;28;20040;-70
2023/09/23 10:22:20;;;;;;;0.80;0.80;;;18.20;99.90;;;;;;5039090;28;20037;-71
2023/09/23 10:25:04;;;;;;;1.27;1.17;;;18.10;99.90;;;;;;5051084;28;20043;-70
2023/09/23 10:27:36;;;;;;;0.80;0.80;;;18.00;99.90;;;;;;5038400;28;20041;-71
2023/09/23 10:30:03;;;;;;;0.98;0.98;;;18.00;99.90;;;;;;5042931;28;20520;-71
2023/09/23 10:32:29;;;;;;;0.40;0.40;;;18.10;99.90;;;;;;5042535;28;20108;-70
2023/09/23 10:34:55;;;;;;;0.47;0.47;;;18.30;99.90;;;;;;5043072;28;20111;-74
2023/09/23 10:37:35;;;;;;;2.45;1.10;;;18.40;99.90;;;;;;5047613;28;20047;-73
2023/09/23 10:40:12;;;;;;;0.52;0.52;;;18.60;99.90;;;;;;5033388;28;20036;-74
2023/09/23 10:42:41;;;;;;;1.35;1.30;;;18.80;99.90;;;;;;5050900;28;20044;-73
2023/09/23 10:45:08;;;;;;;0.60;0.60;;;18.90;99.90;;;;;;5040260;28;20183;-73
2023/09/23 10:47:37;;;;;;;1.63;0.93;;;19.00;99.90;;;;;;5021876;28;20051;-73
2023/09/23 10:50:10;;;;;;;0.90;0.90;;;19.10;99.90;;;;;;5034488;28;20582;-73
2023/09/23 10:52:37;;;;;;;0.50;0.50;;;19.10;99.90;;;;;;5033430;28;20051;-73
2023/09/23 10:55:04;;;;;;;1.05;1.05;;;19.20;99.90;;;;;;5046921;28;20512;-73
2023/09/23 10:57:30;;;;;;;0.50;0.50;;;19.20;99.90;;;;;;5051205;28;20048;-72
2023/09/23 11:02:05;;;;;;;0.22;0.22;;;19.10;99.90;;;;;;5094707;27;20397;-72
2023/09/23 11:04:31;;;;;;;0.40;0.40;;;19.00;99.90;;;;;;5078230;28;20474;-71
2023/09/23 11:06:57;;;;;;;0.30;0.30;;;18.90;99.90;;;;;;5083563;28;20652;-72
2023/09/23 11:09:23;;;;;;;0.50;0.50;;;18.80;99.90;;;;;;5064534;28;20101;-72
2023/09/23 11:11:49;;;;;;;0.75;0.75;;;18.60;99.90;;;;;;5086722;28;20521;-73
2023/09/23 11:14:14;;;;;;;0.50;0.50;;;18.50;99.90;;;;;;5087655;28;20046;-72
2023/09/23 11:16:46;;;;;;;0.43;0.43;;;18.40;99.90;;;;;;5060985;28;20051;-72
2023/09/23 11:19:12;;;;;;;0.52;0.50;;;18.30;99.90;;;;;;5075824;28;20048;-72
2023/09/23 11:21:46;;;;;;;0.50;0.50;;;18.20;99.90;;;;;;5074194;28;20090;-73
2023/09/23 11:24:12;;;;;;;0.38;0.38;;;18.10;99.90;;;;;;5071604;28;20044;-71
2023/09/23 11:26:39;;;;;;;0.65;0.65;;;17.90;99.90;;;;;;5080456;28;20047;-73
2023/09/23 11:29:08;;;;;;;0.63;0.60;;;17.90;99.90;;;;;;5078288;28;20039;-72
2023/09/23 11:31:34;;;;;;;0.40;0.40;;;17.80;99.90;;;;;;5078168;28;20040;-74
2023/09/23 11:34:00;;;;;;;0.30;0.30;;;17.80;99.90;;;;;;5078650;28;20047;-72
2023/09/23 11:36:26;;;;;;;0.38;0.38;;;17.70;99.90;;;;;;5081460;28;20112;-73
2023/09/23 11:38:51;;;;;;;0.40;0.40;;;17.70;99.90;;;;;;5081189;28;20665;-73
2023/09/23 11:41:17;;;;;;;0.50;0.50;;;17.70;99.90;;;;;;5080037;28;20043;-71
2023/09/23 11:43:44;;;;;;;0.40;0.40;;;17.60;99.90;;;;;;5077597;28;20493;-72
2023/09/23 11:46:11;;;;;;;0.52;0.52;;;17.50;99.90;;;;;;5080301;28;20031;-72
2023/09/23 11:48:38;;;;;;;0.60;0.60;;;17.40;99.90;;;;;;5073199;28;20040;-70
2023/09/23 11:51:03;;;;;;;0.40;0.40;;;17.40;99.90;;;;;;5085858;28;20096;-72
2023/09/23 11:53:29;;;;;;;0.52;0.52;;;17.30;99.90;;;;;;5072505;28;20048;-71
2023/09/23 11:55:55;;;;;;;0.63;0.63;;;17.20;99.90;;;;;;5074207;28;20048;-71
2023/09/23 11:58:21;;;;;;;0.85;0.80;;;17.10;99.90;;;;;;5087710;28;20653;-72
2023/09/23 12:00:50;;;;;;;0.50;0.50;;;17.10;99.90;;;;;;5080613;28;20044;-72
2023/09/23 12:03:16;;;;;;;0.52;0.52;;;17.10;99.90;;;;;;5079704;28;20052;-71
2023/09/23 12:05:41;;;;;;;1.10;1.10;;;17.10;99.90;;;;;;5081206;28;20039;-71
2023/09/23 12:08:09;;;;;;;0.40;0.40;;;17.10;99.90;;;;;;5075645;28;20040;-72
2023/09/23 12:10:35;;;;;;;;;;;17.20;99.90;;;;;;5080171;28;20043;-71
2023/09/23 12:13:05;;;;;;;0.30;0.30;;;17.40;99.90;;;;;;5075525;28;19923;-71
2023/09/23 12:15:32;;;;;;;0.45;0.45;;;17.50;99.90;;;;;;5064780;28;20044;-71
2023/09/23 12:17:57;;;;;;;0.60;0.60;;;17.70;99.90;;;;;;5072568;28;20335;-70
2023/09/23 12:20:23;;;;;;;0.68;0.68;;;17.80;99.90;;;;;;5058579;28;20047;-73
2023/09/23 12:22:52;;;;;;;0.50;0.50;;;18.00;99.90;;;;;;5076645;28;20035;-73
2023/09/23 12:25:18;;;;;;;0.65;0.65;;;18.00;99.90;;;;;;5070451;28;20070;-73
2023/09/23 12:27:44;;;;;;;0.30;0.30;;;18.10;99.90;;;;;;5077161;28;20095;-73
2023/09/23 12:30:11;;;;;;;0.70;0.70;;;18.10;99.90;;;;;;5065410;28;20050;-73
2023/09/23 12:32:36;;;;;;;0.47;0.47;;;18.10;99.90;;;;;;5067054;28;20144;-73
2023/09/23 12:35:02;;;;;;;0.55;0.55;;;18.00;99.90;;;;;;5060118;28;20485;-74
2023/09/23 12:37:30;;;;;;;0.40;0.40;;;18.00;99.90;;;;;;5071557;28;20036;-74
2023/09/23 12:39:56;;;;;;;0.30;0.30;;;18.00;99.90;;;;;;5055651;28;20144;-73
2023/09/23 12:42:22;;;;;;;0.43;0.43;;;17.90;99.90;;;;;;5062273;28;20679;-75
2023/09/23 12:44:48;;;;;;;0.90;0.85;;;17.90;99.90;;;;;;5068824;28;20041;-74
2023/09/23 12:47:14;;;;;;;0.50;0.50;;;17.80;99.90;;;;;;5074766;28;20111;-73
2023/09/23 12:49:40;;;;;;;0.63;0.50;;;17.70;99.90;;;;;;5070366;28;20039;-74
2023/09/23 12:52:06;;;;;;;0.57;0.57;;;17.70;99.90;;;;;;5053273;28;20066;-74